Time;durP1;ratioP1;P1;durP2;ratioP2;P2;SDS_P1;SDS_P2;PMS_P1;PMS_P2;Temp;Humidity;BMP_temperature;BMP_pressure;BME280_temperature;BME280_humidity;BME280_pressure;Samples;Min_cycle;Max_cycle;Signal;HPM_P1;HPM_P2
2022/03/10 00:00:25;;;;;;;7.50;4.90;;;;;;;-0.59;62.69;101049.80;1337810;92;21347;-77
2022/03/10 00:02:52;;;;;;;7.45;4.08;;;;;;;-0.60;62.83;101056.75;1337748;92;21481;-78
2022/03/10 00:05:19;;;;;;;7.87;4.87;;;;;;;-0.68;62.32;101053.61;1337842;92;22288;-78
2022/03/10 00:07:47;;;;;;;8.53;4.90;;;;;;;-0.62;62.76;101054.66;1324277;93;21354;-78
2022/03/10 00:10:14;;;;;;;8.15;5.12;;;;;;;-0.67;61.90;101051.84;1337856;92;21333;-78
2022/03/10 00:12:51;;;;;;;7.97;5.00;;;;;;;-0.64;61.85;101046.52;1324201;93;21355;-78
2022/03/10 00:15:23;;;;;;;7.97;5.00;;;;;;;-0.64;61.60;101052.56;1337390;92;22331;-78
2022/03/10 00:17:52;;;;;;;6.92;4.72;;;;;;;-0.64;62.24;101056.47;1337499;92;22316;-79
2022/03/10 00:20:22;;;;;;;10.08;5.80;;;;;;;-0.68;61.71;101065.30;1324059;93;21369;-79
2022/03/10 00:22:52;;;;;;;9.33;5.47;;;;;;;-0.65;61.61;101065.64;1337522;92;21474;-79
2022/03/10 00:25:20;;;;;;;9.00;5.58;;;;;;;-0.64;61.44;101070.77;1337927;92;21487;-79
2022/03/10 00:27:47;;;;;;;10.48;5.53;;;;;;;-0.63;60.66;101073.77;1337593;92;21318;-78
2022/03/10 00:30:16;;;;;;;10.70;5.40;;;;;;;-0.59;60.68;101081.83;1337910;92;21354;-79
2022/03/10 00:32:48;;;;;;;8.28;5.22;;;;;;;-0.59;59.51;101079.69;1347630;91;22212;-78
2022/03/10 00:35:21;;;;;;;9.83;5.60;;;;;;;-0.59;59.87;101075.80;1346178;92;21613;-78
2022/03/10 00:37:49;;;;;;;10.50;6.53;;;;;;;-0.63;59.64;101078.98;1352908;91;21472;-79
2022/03/10 00:40:17;;;;;;;8.10;4.65;;;;;;;-0.64;59.15;101077.27;1353069;91;21423;-79
2022/03/10 00:42:44;;;;;;;8.18;4.42;;;;;;;-0.67;58.86;101080.44;1389897;88;21338;-78
2022/03/10 00:45:13;;;;;;;13.18;7.20;;;;;;;-0.69;58.10;101089.62;1394337;88;21389;-79
2022/03/10 00:47:41;;;;;;;12.53;4.85;;;;;;;-0.74;58.46;101088.94;1394611;88;21331;-78
2022/03/10 00:50:10;;;;;;;9.93;5.15;;;;;;;-0.82;58.28;101084.48;1374487;89;21360;-79
2022/03/10 00:52:42;;;;;;;13.88;5.40;;;;;;;-0.85;58.17;101085.91;1394495;88;21376;-79
2022/03/10 00:55:11;;;;;;;9.23;4.22;;;;;;;-0.92;57.22;101085.30;1394898;88;21375;-78
2022/03/10 00:57:39;;;;;;;8.38;5.12;;;;;;;-0.94;57.15;101089.70;1394623;88;21346;-79
2022/03/10 01:00:08;;;;;;;7.15;4.00;;;;;;;-0.94;57.02;101097.04;1394535;88;21301;-79
2022/03/10 01:02:36;;;;;;;9.23;4.53;;;;;;;-1.02;55.95;101089.98;1394764;88;22225;-79
2022/03/10 01:05:05;;;;;;;7.62;3.90;;;;;;;-0.97;55.55;101090.66;1394474;88;22783;-79
2022/03/10 01:07:32;;;;;;;8.53;4.10;;;;;;;-0.97;54.83;101097.16;1394707;88;21301;-79
2022/03/10 01:10:00;;;;;;;6.20;3.85;;;;;;;-0.97;55.67;101094.56;1394651;88;21323;-79
2022/03/10 01:12:27;;;;;;;7.92;4.17;;;;;;;-1.00;53.79;101101.17;1394631;88;21257;-79
2022/03/10 01:14:55;;;;;;;6.30;3.85;;;;;;;-1.01;53.95;101097.31;1394613;88;21338;-79
2022/03/10 01:17:22;;;;;;;8.80;5.05;;;;;;;-1.06;53.47;101097.97;1394685;88;21294;-79
2022/03/10 01:19:49;;;;;;;6.55;4.03;;;;;;;-1.06;54.45;101100.11;1394888;88;21345;-79
2022/03/10 01:22:17;;;;;;;8.53;4.03;;;;;;;-1.10;54.28;101103.70;1394833;88;21375;-78
2022/03/10 01:24:45;;;;;;;8.60;4.28;;;;;;;-1.12;55.07;101104.23;1394633;88;21361;-79
2022/03/10 01:27:12;;;;;;;7.95;4.30;;;;;;;-1.14;55.71;101112.53;1395027;88;21338;-79
2022/03/10 01:29:39;;;;;;;7.83;4.55;;;;;;;-1.11;56.34;101121.50;1394826;88;21279;-79
2022/03/10 01:32:06;;;;;;;5.75;3.92;;;;;;;-1.14;57.03;101119.02;1394794;88;21264;-79
2022/03/10 01:34:33;;;;;;;9.58;5.42;;;;;;;-1.15;57.46;101119.94;1394618;88;21316;-79
2022/03/10 01:37:00;;;;;;;5.10;3.47;;;;;;;-1.17;57.83;101117.84;1394842;88;22778;-79
2022/03/10 01:39:27;;;;;;;5.83;4.33;;;;;;;-1.29;57.41;101125.63;1394802;88;21309;-79
2022/03/10 01:41:54;;;;;;;6.03;3.72;;;;;;;-1.29;57.68;101121.73;1394734;88;21308;-79
2022/03/10 01:44:22;;;;;;;8.20;4.87;;;;;;;-1.38;57.46;101135.05;1392466;88;21390;-79
2022/03/10 01:46:49;;;;;;;8.68;4.53;;;;;;;-1.37;57.90;101127.19;1388127;88;22144;-79
2022/03/10 01:49:17;;;;;;;7.50;4.65;;;;;;;-1.44;57.90;101125.72;1388286;89;21383;-79
2022/03/10 01:51:44;;;;;;;5.87;3.35;;;;;;;-1.50;57.90;101128.50;1388233;89;21487;-79
2022/03/10 01:54:11;;;;;;;7.87;4.35;;;;;;;-1.54;57.47;101129.52;1387913;89;21450;-79
2022/03/10 01:56:39;;;;;;;7.25;3.77;;;;;;;-1.51;57.96;101135.91;1388034;89;21523;-78
2022/03/10 01:59:06;;;;;;;10.80;4.37;;;;;;;-1.56;57.49;101137.81;1388265;88;21478;-79
2022/03/10 02:01:35;;;;;;;10.08;4.30;;;;;;;-1.58;57.21;101138.33;1388076;89;21464;-79
2022/03/10 02:04:02;;;;;;;9.08;4.33;;;;;;;-1.56;57.22;101141.70;1388316;88;21486;-79
2022/03/10 02:06:29;;;;;;;8.80;4.37;;;;;;;-1.59;57.14;101147.00;1388124;89;21554;-79
2022/03/10 02:11:42;;;;;;;4.30;2.62;;;;;;;-1.69;56.27;101146.94;1387935;89;21287;-79
2022/03/10 02:19:40;;;;;;;4.78;2.87;;;;;;;-1.73;55.56;101162.19;1387876;89;21257;-80
2022/03/10 02:22:10;;;;;;;5.65;3.10;;;;;;;-1.78;55.62;101162.36;1388029;88;21509;-79
2022/03/10 02:24:39;;;;;;;6.47;3.65;;;;;;;-1.77;56.14;101174.43;1373541;89;21494;-80
2022/03/10 02:27:20;;;;;;;7.00;3.65;;;;;;;-1.80;55.82;101173.69;1387985;88;21443;-80
2022/03/10 02:29:54;;;;;;;6.67;3.22;;;;;;;-1.85;55.40;101173.83;1387827;88;21323;-80
2022/03/10 02:32:22;;;;;;;6.17;4.33;;;;;;;-1.85;55.40;101176.42;1387408;89;22256;-80
2022/03/10 02:34:49;;;;;;;5.40;3.08;;;;;;;-1.85;55.06;101182.45;1387923;88;21346;-80
2022/03/10 02:37:17;;;;;;;5.78;3.27;;;;;;;-1.88;54.32;101181.72;1388192;88;21375;-79
2022/03/10 02:39:46;;;;;;;5.65;3.37;;;;;;;-1.85;54.55;101189.40;1388084;89;21486;-79
2022/03/10 02:42:13;;;;;;;7.03;3.90;;;;;;;-1.87;54.54;101184.70;1388069;88;21471;-78
2022/03/10 02:44:47;;;;;;;5.80;3.00;;;;;;;-1.87;54.30;101184.27;1388592;88;21521;-80
2022/03/10 02:47:15;;;;;;;5.60;3.00;;;;;;;-1.89;53.54;101192.55;1373611;90;21346;-79
2022/03/10 02:49:42;;;;;;;7.45;3.02;;;;;;;-1.88;53.72;101191.64;1388171;89;22771;-79
2022/03/10 02:52:10;;;;;;;8.10;2.83;;;;;;;-1.91;53.84;101194.34;1387907;88;22622;-80
2022/03/10 02:54:38;;;;;;;9.63;3.25;;;;;;;-1.91;52.28;101199.98;1387882;89;21417;-79
2022/03/10 02:57:05;;;;;;;5.55;3.15;;;;;;;-1.88;52.43;101200.72;1387885;89;21413;-79
2022/03/10 02:59:32;;;;;;;5.12;2.55;;;;;;;-1.83;52.34;101201.43;1388079;89;21316;-80
2022/03/10 03:02:00;;;;;;;6.10;4.00;;;;;;;-1.83;52.27;101207.91;1384210;89;21441;-79
2022/03/10 03:04:27;;;;;;;10.55;3.15;;;;;;;-1.80;52.62;101215.21;1382313;90;21515;-80
2022/03/10 03:06:54;;;;;;;6.12;3.22;;;;;;;-1.82;52.04;101215.25;1391801;88;21518;-79
2022/03/10 03:09:21;;;;;;;5.50;3.50;;;;;;;-1.82;52.18;101225.62;1392017;88;21347;-79
2022/03/10 03:11:48;;;;;;;4.30;2.45;;;;;;;-1.83;52.20;101227.38;1392771;88;22183;-79
2022/03/10 03:14:15;;;;;;;4.37;2.40;;;;;;;-1.85;51.74;101229.16;1377902;89;22213;-79
2022/03/10 03:16:43;;;;;;;5.78;3.87;;;;;;;-1.84;52.31;101236.07;1392722;88;21393;-79
2022/03/10 03:19:10;;;;;;;4.28;3.02;;;;;;;-1.85;52.42;101236.95;1378354;88;21311;-79
2022/03/10 03:21:37;;;;;;;8.23;3.50;;;;;;;-1.86;52.23;101241.75;1392519;88;21407;-79
2022/03/10 03:24:05;;;;;;;5.60;2.52;;;;;;;-1.85;52.52;101244.73;1392763;88;21318;-79
2022/03/10 03:26:32;;;;;;;6.33;3.70;;;;;;;-1.89;52.33;101250.93;1392510;88;21230;-80
2022/03/10 03:28:59;;;;;;;9.25;3.17;;;;;;;-1.89;52.20;101257.42;1392880;88;22219;-79
2022/03/10 03:31:26;;;;;;;6.28;3.02;;;;;;;-1.93;52.28;101259.69;1392808;88;22177;-79
2022/03/10 03:33:53;;;;;;;5.70;3.50;;;;;;;-1.93;51.69;101260.14;1392651;88;21274;-79
2022/03/10 03:36:20;;;;;;;8.10;4.30;;;;;;;-1.91;51.82;101263.09;1392828;88;21318;-79
2022/03/10 03:38:48;;;;;;;8.28;3.72;;;;;;;-1.88;51.48;101261.70;1392563;88;21275;-79
2022/03/10 03:41:15;;;;;;;6.53;3.05;;;;;;;-1.88;51.76;101267.34;1400399;88;21392;-79
2022/03/10 03:43:42;;;;;;;6.62;3.72;;;;;;;-1.90;51.84;101272.59;1392487;88;21333;-79
2022/03/10 03:46:10;;;;;;;5.37;2.98;;;;;;;-1.92;51.82;101269.19;1392946;88;21459;-79
2022/03/10 03:48:37;;;;;;;5.03;3.05;;;;;;;-1.98;51.94;101273.27;1392675;88;21451;-79
2022/03/10 03:51:04;;;;;;;6.87;3.02;;;;;;;-2.00;52.10;101280.25;1392434;88;21370;-79
2022/03/10 03:53:31;;;;;;;7.40;4.47;;;;;;;-2.03;52.24;101279.05;1392704;88;21318;-79
2022/03/10 03:55:58;;;;;;;12.30;4.55;;;;;;;-2.00;52.49;101288.03;1392434;88;21429;-79
2022/03/10 03:58:26;;;;;;;7.03;4.50;;;;;;;-2.01;52.68;101294.13;1392645;88;21325;-79
2022/03/10 04:00:53;;;;;;;7.90;4.80;;;;;;;-2.07;52.77;101296.91;1392609;88;22250;-79
2022/03/10 04:03:20;;;;;;;7.05;3.72;;;;;;;-2.15;52.55;101298.88;1392473;88;21282;-79
2022/03/10 04:05:47;;;;;;;12.95;5.10;;;;;;;-2.11;53.17;101306.95;1392769;88;21304;-79
2022/03/10 04:08:14;;;;;;;7.28;3.60;;;;;;;-2.12;53.38;101318.23;1403782;88;21267;-79
2022/03/10 04:10:42;;;;;;;6.62;3.50;;;;;;;-2.20;53.20;101315.01;1378218;89;21341;-79
2022/03/10 04:13:09;;;;;;;6.22;2.98;;;;;;;-2.21;53.28;101319.80;1392797;88;21333;-79
2022/03/10 04:15:36;;;;;;;7.05;3.47;;;;;;;-2.24;53.15;101331.53;1392553;88;21340;-79
2022/03/10 04:18:03;;;;;;;10.18;4.30;;;;;;;-2.31;53.34;101320.05;1392705;88;21333;-79
2022/03/10 04:20:30;;;;;;;7.58;3.45;;;;;;;-2.32;53.28;101332.62;1392678;88;21408;-79
2022/03/10 04:22:58;;;;;;;7.75;3.83;;;;;;;-2.33;53.41;101332.23;1392673;88;21481;-79
2022/03/10 04:25:25;;;;;;;6.65;3.60;;;;;;;-2.35;53.45;101336.59;1392670;88;21266;-79
2022/03/10 04:27:56;;;;;;;7.17;4.05;;;;;;;-2.33;53.68;101337.83;1384710;88;21347;-79
2022/03/10 04:30:22;;;;;;;6.62;3.15;;;;;;;-2.37;53.31;101346.16;1384519;88;21354;-79
2022/03/10 04:32:49;;;;;;;6.72;3.98;;;;;;;-2.38;53.25;101343.16;1384538;88;21266;-79
2022/03/10 04:35:19;;;;;;;9.83;5.10;;;;;;;-2.42;53.17;101342.83;1382675;88;21376;-79
2022/03/10 04:37:51;;;;;;;6.95;3.60;;;;;;;-2.40;52.89;101344.94;1388237;90;21340;-79
2022/03/10 04:40:20;;;;;;;8.50;4.10;;;;;;;-2.41;52.85;101356.66;1387779;88;22901;-79
2022/03/10 04:42:49;;;;;;;6.65;3.20;;;;;;;-2.41;53.37;101356.22;1380442;88;21384;-80
2022/03/10 04:45:17;;;;;;;6.35;3.20;;;;;;;-2.45;52.89;101357.62;1377484;90;21317;-80
2022/03/10 04:47:45;;;;;;;5.95;3.22;;;;;;;-2.44;53.22;101364.08;1370885;90;21369;-80
2022/03/10 04:50:14;;;;;;;6.62;3.47;;;;;;;-2.50;53.18;101363.80;1384888;88;21273;-79
2022/03/10 04:52:41;;;;;;;4.95;2.92;;;;;;;-2.52;53.09;101367.32;1392770;88;21355;-78
2022/03/10 04:55:10;;;;;;;7.33;3.30;;;;;;;-2.56;52.80;101377.34;1380691;89;21391;-78
2022/03/10 04:57:39;;;;;;;8.33;3.77;;;;;;;-2.55;52.92;101376.48;1386339;88;22267;-85
2022/03/10 05:00:10;;;;;;;7.45;3.70;;;;;;;-2.54;53.04;101388.53;1385041;88;21318;-89
2022/03/10 05:02:39;;;;;;;5.37;3.37;;;;;;;-2.55;53.16;101388.14;1375724;90;21347;-91
2022/03/10 05:05:12;;;;;;;5.62;3.05;;;;;;;-2.54;53.24;101395.02;1391222;90;21325;-92
2022/03/10 05:07:39;;;;;;;6.00;3.55;;;;;;;-2.60;52.83;101400.36;1376210;89;21398;-91
2022/03/10 05:10:09;;;;;;;6.87;4.20;;;;;;;-2.56;53.13;101395.48;1386485;90;21303;-91
2022/03/10 05:13:03;;;;;;;8.08;4.28;;;;;;;-2.58;53.33;101399.89;1381610;88;21362;-90
2022/03/10 05:15:31;;;;;;;8.23;4.30;;;;;;;-2.60;53.33;101409.44;1391659;90;21385;-90
2022/03/10 05:17:59;;;;;;;7.67;4.28;;;;;;;-2.63;53.08;101411.66;1394261;88;22142;-91
2022/03/10 05:20:28;;;;;;;9.98;5.78;;;;;;;-2.59;53.28;101412.42;1387097;88;21266;-90
2022/03/10 05:22:59;;;;;;;8.18;4.50;;;;;;;-2.59;53.27;101417.61;1375231;89;21237;-91
2022/03/10 05:25:35;;;;;;;;;;;;;;;-2.52;53.63;101425.20;1377572;90;22241;-90
2022/03/10 05:28:04;;;;;;;7.15;4.37;;;;;;;-2.55;53.36;101423.13;1373248;90;20379;-90
2022/03/10 05:30:33;;;;;;;7.08;4.28;;;;;;;-2.53;53.69;101430.44;1385424;88;21510;-90
2022/03/10 05:33:00;;;;;;;12.63;4.50;;;;;;;-2.52;53.50;101430.83;1385862;88;22152;-91
2022/03/10 05:35:29;;;;;;;13.58;5.97;;;;;;;-2.50;53.89;101432.95;1377487;89;22391;-93
2022/03/10 05:37:57;;;;;;;8.38;4.45;;;;;;;-2.48;53.93;101437.63;1358138;88;21269;-93
2022/03/10 05:40:24;;;;;;;11.18;4.67;;;;;;;-2.44;53.89;101444.45;1343634;91;21380;-90
2022/03/10 05:42:56;;;;;;;8.20;3.85;;;;;;;-2.40;53.74;101447.80;1341544;92;22214;-93
2022/03/10 05:45:25;;;;;;;12.82;4.60;;;;;;;-2.37;53.54;101453.75;1360259;88;21375;-90
2022/03/10 05:47:55;;;;;;;7.80;4.45;;;;;;;-2.33;53.63;101455.39;1363123;90;21245;-89
2022/03/10 05:50:25;;;;;;;8.08;4.60;;;;;;;-2.25;53.22;101460.36;1364413;90;21239;-92
2022/03/10 05:52:53;;;;;;;11.55;5.87;;;;;;;-2.19;53.42;101456.75;1363173;90;21276;-88
2022/03/10 05:55:23;;;;;;;22.80;7.75;;;;;;;-2.13;52.98;101463.06;1342752;92;21387;-87
2022/03/10 05:57:55;;;;;;;12.30;5.55;;;;;;;-2.10;52.40;101467.75;1381233;88;21308;-87
2022/03/10 06:00:24;;;;;;;13.75;7.00;;;;;;;-1.97;52.01;101464.81;1396959;88;21330;-86
2022/03/10 06:02:51;;;;;;;19.25;9.05;;;;;;;-1.84;52.41;101469.62;1392418;88;21383;-86
2022/03/10 06:05:18;;;;;;;14.68;6.05;;;;;;;-1.72;52.27;101472.31;1396317;88;21352;-87
2022/03/10 06:07:45;;;;;;;20.23;7.78;;;;;;;-1.63;51.61;101472.50;1379219;89;21405;-86
2022/03/10 06:10:13;;;;;;;12.00;4.85;;;;;;;-1.50;51.00;101472.98;1398228;88;21346;-85
2022/03/10 06:12:40;;;;;;;9.03;4.65;;;;;;;-1.47;50.47;101476.33;1388352;88;21375;-85
2022/03/10 06:15:09;;;;;;;8.45;4.55;;;;;;;-1.32;51.11;101488.03;1359862;91;21293;-83
2022/03/10 06:17:37;;;;;;;9.53;4.83;;;;;;;-1.25;50.63;101488.70;1378767;89;22366;-85
2022/03/10 06:20:06;;;;;;;10.90;6.08;;;;;;;-1.15;50.55;101496.62;1379279;89;21452;-86
2022/03/10 06:22:34;;;;;;;7.62;4.65;;;;;;;-1.06;50.33;101500.23;1378665;89;21301;-86
2022/03/10 06:25:02;;;;;;;15.38;7.62;;;;;;;-0.99;49.64;101501.73;1382113;89;21331;-90
2022/03/10 06:27:29;;;;;;;26.80;13.75;;;;;;;-0.82;50.35;101499.06;1395041;88;21287;-92
2022/03/10 06:30:04;;;;;;;8.98;4.90;;;;;;;-0.69;49.96;101509.48;1399126;88;21315;-91
2022/03/10 06:32:31;;;;;;;8.80;5.53;;;;;;;-0.59;49.16;101510.02;1349367;91;22492;-91
2022/03/10 06:34:59;;;;;;;15.43;7.25;;;;;;;-0.47;49.15;101507.86;1349635;92;21532;-91
2022/03/10 06:37:28;;;;;;;9.53;5.15;;;;;;;-0.36;48.67;101506.67;1348850;92;21512;-92
2022/03/10 06:39:55;;;;;;;16.37;6.97;;;;;;;-0.22;48.52;101512.25;1348826;91;22219;-91
2022/03/10 06:42:23;;;;;;;18.27;8.73;;;;;;;-0.13;48.37;101510.63;1348204;92;21258;-92
2022/03/10 06:44:50;;;;;;;54.15;24.82;;;;;;;-0.05;48.19;101509.92;1333731;93;21302;-92
2022/03/10 06:47:19;;;;;;;17.00;7.20;;;;;;;0.06;48.09;101516.48;1343903;90;21464;-90
2022/03/10 06:49:48;;;;;;;11.33;6.42;;;;;;;0.07;46.96;101519.52;1313479;95;21406;-89
2022/03/10 06:52:15;;;;;;;14.28;7.35;;;;;;;0.03;47.67;101523.11;1314211;94;21340;-90
2022/03/10 06:54:42;;;;;;;31.85;14.55;;;;;;;0.06;47.65;101523.00;1313594;95;21326;-92
2022/03/10 06:57:12;;;;;;;19.60;7.85;;;;;;;0.26;48.33;101524.47;1332294;93;21517;-92
2022/03/10 06:59:39;;;;;;;14.10;7.47;;;;;;;0.32;48.27;101524.70;1313377;95;21288;-91
2022/03/10 07:02:09;;;;;;;14.83;5.58;;;;;;;0.28;47.29;101531.75;1329082;92;21641;-92
2022/03/10 07:04:36;;;;;;;13.23;7.10;;;;;;;0.35;47.22;101537.16;1314095;95;21468;-92
2022/03/10 07:07:04;;;;;;;11.33;5.50;;;;;;;0.34;47.17;101540.65;1331642;93;21371;-91
2022/03/10 07:09:32;;;;;;;22.63;10.90;;;;;;;0.33;47.24;101541.56;1327554;92;21893;-93
2022/03/10 07:12:00;;;;;;;17.63;8.67;;;;;;;0.53;48.02;101545.21;1372698;89;21636;-94
2022/03/10 07:14:29;;;;;;;36.07;18.00;;;;;;;0.70;47.29;101542.83;1373823;90;21511;-92
2022/03/10 07:16:56;;;;;;;22.10;11.90;;;;;;;0.77;47.65;101544.28;1373250;89;21703;-94
2022/03/10 07:19:27;;;;;;;13.10;5.77;;;;;;;0.86;47.16;101548.30;1372943;90;22896;-90
2022/03/10 07:21:54;;;;;;;32.63;12.77;;;;;;;0.78;46.26;101544.70;1369849;90;21637;-91
2022/03/10 07:24:22;;;;;;;21.10;10.90;;;;;;;0.99;47.44;101548.24;1341849;93;21425;-92
2022/03/10 07:26:49;;;;;;;14.13;7.63;;;;;;;1.20;46.55;101544.41;1357774;91;22496;-92
2022/03/10 07:29:16;;;;;;;15.03;8.27;;;;;;;1.23;46.45;101546.43;1358511;91;21410;-90
2022/03/10 07:31:48;;;;;;;15.33;8.93;;;;;;;1.16;45.86;101545.45;1360580;91;21587;-90
2022/03/10 07:34:16;;;;;;;25.13;13.33;;;;;;;1.24;45.89;101545.54;1365165;89;21467;-91
2022/03/10 07:36:45;;;;;;;16.33;8.93;;;;;;;1.42;45.48;101550.47;1366104;89;21537;-91
2022/03/10 07:39:12;;;;;;;18.73;11.03;;;;;;;1.45;45.92;101545.59;1372912;90;21703;-92
2022/03/10 07:41:39;;;;;;;18.90;9.10;;;;;;;1.60;45.68;101554.55;1372952;89;21441;-89
2022/03/10 07:44:07;;;;;;;16.13;8.77;;;;;;;1.76;45.00;101555.63;1352901;91;22312;-88
2022/03/10 07:46:34;;;;;;;16.10;8.50;;;;;;;1.88;43.23;101556.88;1354364;90;21539;-85
2022/03/10 07:49:03;;;;;;;15.87;7.20;;;;;;;1.95;43.41;101557.00;1354063;90;21402;-87
2022/03/10 07:51:31;;;;;;;14.37;7.00;;;;;;;1.87;42.80;101553.86;1353826;91;21797;-87
2022/03/10 07:53:58;;;;;;;10.00;4.97;;;;;;;1.88;42.13;101558.19;1355777;90;21535;-87
2022/03/10 07:56:25;;;;;;;5.97;3.80;;;;;;;1.58;42.13;101558.52;1356629;90;21585;-90
2022/03/10 07:58:53;;;;;;;10.07;4.27;;;;;;;1.40;41.98;101559.27;1358547;91;21576;-90
2022/03/10 08:01:20;;;;;;;49.77;23.47;;;;;;;1.64;39.46;101560.03;1373505;90;21436;-83
2022/03/10 08:03:47;;;;;;;12.00;6.70;;;;;;;1.85;42.60;101559.63;1372079;89;21527;-83
2022/03/10 08:06:14;;;;;;;7.53;5.13;;;;;;;2.34;40.68;101564.05;1365775;90;21384;-83
2022/03/10 08:08:43;;;;;;;25.33;11.47;;;;;;;2.49;43.28;101571.21;1353858;90;21499;-82
2022/03/10 08:11:11;;;;;;;12.23;6.43;;;;;;;2.79;39.92;101560.29;1342074;92;21538;-94
2022/03/10 08:13:38;;;;;;;8.20;4.77;;;;;;;3.02;37.95;101565.33;1364766;91;21493;-93
2022/03/10 08:16:05;;;;;;;11.37;7.00;;;;;;;2.49;39.19;101554.23;1365938;90;21493;-94
2022/03/10 08:18:33;;;;;;;31.30;15.17;;;;;;;2.49;39.19;101554.23;1377856;87;21950;-95
2022/03/10 08:23:44;;;;;;;7.53;5.03;;;;;;;2.54;37.68;101550.95;1391955;86;21804;-94
2022/03/10 08:26:11;;;;;;;8.50;4.80;;;;;;;2.54;37.68;101550.95;1384641;86;21972;-86
2022/03/10 08:28:38;;;;;;;9.73;5.50;;;;;;;2.61;38.23;101554.98;1394363;86;21922;-93
2022/03/10 08:31:05;;;;;;;19.90;10.33;;;;;;;2.92;38.67;101564.05;1405529;86;21738;-92
2022/03/10 08:33:37;;;;;;;11.20;6.07;;;;;;;3.16;37.33;101560.30;1421899;85;22308;-94
2022/03/10 08:36:11;;;;;;;9.03;5.50;;;;;;;3.16;37.33;101560.30;1388603;86;23786;31
2022/03/10 08:39:09;;;;;;;;;;;;;;;;;;;;;
2022/03/10 08:52:35;;;;;;;;;;;;;;;;;;;;;
2022/03/10 08:57:36;;;;;;;10.80;6.23;;;;;;;2.92;36.67;101577.13;1349086;89;22449;31
2022/03/10 09:00:22;;;;;;;11.67;5.90;;;;;;;3.07;36.71;101562.48;1398779;86;22217;31
2022/03/10 09:11:06;;;;;;;7.57;3.80;;;;;;;3.74;35.72;101575.41;1341628;90;23233;31
2022/03/10 09:13:38;;;;;;;9.47;5.53;;;;;;;3.94;34.50;101571.36;1361805;89;22536;31
2022/03/10 09:16:05;;;;;;;;;;;;;;;3.76;34.94;101569.64;1359240;89;22832;-85
2022/03/10 09:18:34;;;;;;;12.33;5.30;;;;;;;3.91;34.74;101573.27;1349538;92;20259;-87
2022/03/10 09:21:03;;;;;;;17.50;10.27;;;;;;;3.75;34.21;101567.48;1349534;92;22296;-89
2022/03/10 09:23:30;;;;;;;15.40;8.53;;;;;;;3.85;33.84;101574.41;1349338;92;22228;-88
2022/03/10 09:25:57;;;;;;;12.20;6.73;;;;;;;4.00;33.91;101580.22;1349143;92;22153;-88
2022/03/10 09:28:26;;;;;;;9.53;5.00;;;;;;;4.25;33.95;101577.64;1334094;93;22083;-87
2022/03/10 09:30:53;;;;;;;10.53;5.90;;;;;;;3.99;32.77;101580.28;1343546;92;23070;-88
2022/03/10 09:33:20;;;;;;;12.43;5.30;;;;;;;4.07;34.46;101586.83;1334236;93;22225;-89
2022/03/10 09:41:01;;;;;;;9.27;5.17;;;;;;;4.21;34.04;101591.84;1395796;86;24962;31
2022/03/10 09:46:10;;;;;;;7.55;5.50;;;;;;;4.15;34.16;101596.09;1404999;85;22392;31
2022/03/10 09:51:41;;;;;;;;;;;;;;;;;;;;;
2022/03/10 09:54:00;;;;;;;10.70;5.17;;;;;;;5.24;33.92;101587.23;1333803;92;21518;31
2022/03/10 09:56:40;;;;;;;15.83;6.93;;;;;;;5.01;32.95;101595.52;1400880;86;21587;31
2022/03/10 09:59:12;;;;;;;8.43;5.17;;;;;;;5.36;33.33;101593.11;1403220;86;21582;31
2022/03/10 10:02:08;;;;;;;;;;;;;;;;;;;;;
2022/03/10 10:04:29;;;;;;;6.73;4.27;;;;;;;5.62;31.43;101597.36;1379656;88;24713;31
2022/03/10 10:07:05;;;;;;;11.20;4.83;;;;;;;5.63;30.81;101596.42;1414163;86;21573;-94
2022/03/10 10:09:48;;;;;;;6.70;4.15;;;;;;;5.84;30.92;101591.27;1416702;85;21648;31
2022/03/10 10:17:34;;;;;;;7.90;4.70;;;;;;;6.13;31.25;101607.16;1403547;86;21939;-95
2022/03/10 10:20:10;;;;;;;9.37;4.40;;;;;;;5.96;29.73;101608.61;1405204;86;21662;31
2022/03/10 10:33:07;;;;;;;3.93;2.77;;;;;;;5.04;30.26;101603.23;1344726;88;21679;31
2022/03/10 10:35:43;;;;;;;7.80;4.20;;;;;;;5.41;29.37;101606.83;1348377;88;24031;31
2022/03/10 10:38:30;;;;;;;6.85;3.25;;;;;;;5.72;30.12;101596.36;1303802;92;24656;31
2022/03/10 10:49:36;;;;;;;6.47;3.90;;;;;;;6.13;30.17;101599.71;1323072;91;21604;-91
2022/03/10 10:52:14;;;;;;;8.43;4.83;;;;;;;6.91;29.33;101602.91;1322372;94;21391;-91
2022/03/10 10:54:41;;;;;;;5.40;3.90;;;;;;;7.15;28.72;101596.08;1329283;92;21353;-91
2022/03/10 10:57:38;;;;;;;7.00;4.30;;;;;;;6.51;27.58;101601.39;1334838;93;21679;-91
2022/03/10 11:00:13;;;;;;;7.13;4.10;;;;;;;6.01;28.97;101590.77;1344890;93;21318;-91
2022/03/10 11:02:44;;;;;;;5.30;3.50;;;;;;;5.37;29.37;101607.92;1345052;91;21473;-90
2022/03/10 11:05:14;;;;;;;6.83;3.90;;;;;;;5.58;29.09;101599.77;1334979;91;22596;-89
2022/03/10 11:07:42;;;;;;;4.30;3.37;;;;;;;5.13;29.11;101606.66;1338721;91;21318;-90
2022/03/10 11:10:11;;;;;;;7.33;3.97;;;;;;;5.38;29.67;101595.63;1338983;92;21334;-91
2022/03/10 11:12:41;;;;;;;5.67;4.13;;;;;;;4.24;30.09;101611.34;1337219;93;21318;-91
2022/03/10 11:15:09;;;;;;;8.20;3.50;;;;;;;4.48;31.08;101613.16;1344383;92;21415;-91
2022/03/10 11:17:38;;;;;;;4.83;3.30;;;;;;;5.27;31.00;101605.44;1328167;92;21318;-92
2022/03/10 11:20:09;;;;;;;6.03;4.03;;;;;;;6.14;28.93;101590.44;1331522;93;21540;-91
2022/03/10 11:23:05;;;;;;;5.17;3.10;;;;;;;6.62;29.04;101596.33;1329542;93;21371;-90
2022/03/10 11:25:56;;;;;;;7.43;4.73;;;;;;;7.16;27.57;101595.16;1327395;93;22257;-91
2022/03/10 11:28:44;;;;;;;;;;;;;;;;;;;;;
2022/03/10 11:31:02;;;;;;;6.00;3.90;;;;;;;7.63;26.08;101591.25;1322630;93;21374;-90
2022/03/10 11:33:35;;;;;;;8.60;2.67;;;;;;;8.07;26.54;101587.94;1302780;95;21690;-87
2022/03/10 11:36:23;;;;;;;6.43;3.50;;;;;;;7.68;24.87;101576.44;1322439;94;21427;-91
2022/03/10 11:39:00;;;;;;;10.33;3.23;;;;;;;7.55;26.84;101595.33;1298019;95;21467;-91
2022/03/10 11:41:46;;;;;;;7.27;3.23;;;;;;;7.89;27.02;101588.70;1333294;93;21466;-92
2022/03/10 11:44:13;;;;;;;10.13;4.03;;;;;;;7.57;25.04;101603.52;1302205;94;21504;-91
2022/03/10 11:46:57;;;;;;;6.97;4.20;;;;;;;7.91;26.28;101598.64;1324184;93;21464;-91
2022/03/10 11:49:47;;;;;;;7.67;3.67;;;;;;;7.47;25.06;101606.35;1304993;93;21449;-91
2022/03/10 11:52:24;;;;;;;5.95;3.85;;;;;;;7.51;25.58;101602.59;1308825;95;22521;-92
2022/03/10 11:55:13;;;;;;;7.10;3.80;;;;;;;7.34;25.75;101613.37;1309077;95;21302;-91
2022/03/10 11:57:56;;;;;;;7.87;4.67;;;;;;;7.43;26.92;101607.51;1308843;95;21338;-91
2022/03/10 12:26:47;;;;;;;6.80;5.23;;;;;;;8.77;23.86;101586.22;1320488;91;21723;-92
2022/03/10 12:29:15;;;;;;;11.40;6.80;;;;;;;9.38;24.63;101583.19;1350964;90;21541;-93
2022/03/10 12:31:42;;;;;;;4.73;3.17;;;;;;;9.14;24.37;101575.70;1351648;92;21334;-94
2022/03/10 12:39:47;;;;;;;7.10;4.00;;;;;;;7.11;26.27;101582.75;1399523;85;21721;-91
2022/03/10 12:47:46;;;;;;;4.30;3.10;;;;;;;7.43;25.52;101602.23;1385418;87;21646;31
2022/03/10 12:52:57;;;;;;;8.18;3.72;;;;;;;7.52;24.92;101596.37;1393818;86;21720;31
2022/03/10 12:58:05;;;;;;;6.03;3.40;;;;;;;6.67;24.89;101600.81;1406317;85;21745;31
2022/03/10 13:00:46;;;;;;;19.27;9.20;;;;;;;6.62;25.94;101608.16;1404755;85;21626;31
2022/03/10 13:06:05;;;;;;;8.57;4.50;;;;;;;8.48;25.28;101600.13;1408965;86;21654;31
2022/03/10 13:11:44;;;;;;;6.43;4.07;;;;;;;9.54;23.45;101596.59;1299590;93;21831;-92
2022/03/10 13:16:56;;;;;;;;;;;;;;;;;;;;;
2022/03/10 13:25:06;;;;;;;;;;;;;;;;;;;;;
2022/03/10 13:27:38;;;;;;;;;;;;;;;;;;;;;
2022/03/10 13:29:53;;;;;;;10.10;6.60;;;;;;;8.05;25.16;101626.73;1267576;96;21504;31
2022/03/10 13:32:36;;;;;;;7.90;5.20;;;;;;;7.54;25.21;101636.64;1309358;92;21689;31
2022/03/10 13:37:48;;;;;;;7.67;3.73;;;;;;;6.91;25.93;101630.06;1325909;92;21632;31
2022/03/10 13:40:43;;;;;;;5.03;3.60;;;;;;;7.44;25.64;101635.05;1311442;92;21506;-93
2022/03/10 13:43:11;;;;;;;5.20;3.20;;;;;;;7.83;24.79;101632.59;1289887;93;23303;-96
2022/03/10 13:46:20;;;;;;;;;;;;;;;;;;;;;
2022/03/10 13:48:51;;;;;;;5.83;3.27;;;;;;;8.68;25.20;101627.78;1275978;93;21654;-95
2022/03/10 13:51:07;;;;;;;4.27;3.23;;;;;;;7.95;25.22;101619.91;1294191;96;21312;-94
2022/03/10 13:53:37;;;;;;;10.25;4.90;;;;;;;6.48;27.22;101632.66;1349728;88;21758;31
2022/03/10 13:56:09;;;;;;;5.30;3.55;;;;;;;6.43;27.76;101641.77;1351570;88;21515;31
2022/03/10 13:58:39;;;;;;;5.15;3.60;;;;;;;5.74;28.41;101642.63;1317279;89;21640;31